sensor_id;sensor_type;location;lat;lon;timestamp;temperature;humidity
4050;DHT22;2039;50.894;6.888;2023-04-01T00:01:00;11.10;99.90
4050;DHT22;2039;50.894;6.888;2023-04-01T00:03:26;11.10;99.90
4050;DHT22;2039;50.894;6.888;2023-04-01T00:05:53;11.10;99.90
4050;DHT22;2039;50.894;6.888;2023-04-01T00:08:19;11.10;99.90
4050;DHT22;2039;50.894;6.888;2023-04-01T00:10:48;11.10;99.90
4050;DHT22;2039;50.894;6.888;2023-04-01T00:13:14;11.10;99.90
4050;DHT22;2039;50.894;6.888;2023-04-01T00:15:40;11.20;99.90
4050;DHT22;2039;50.894;6.888;2023-04-01T00:18:05;11.20;99.90
4050;DHT22;2039;50.894;6.888;2023-04-01T00:20:31;11.10;99.90
4050;DHT22;2039;50.894;6.888;2023-04-01T00:22:57;11.10;99.90
4050;DHT22;2039;50.894;6.888;2023-04-01T00:25:23;11.10;99.90
4050;DHT22;2039;50.894;6.888;2023-04-01T00:27:49;11.10;99.90
4050;DHT22;2039;50.894;6.888;2023-04-01T00:30:15;11.10;99.90
4050;DHT22;2039;50.894;6.888;2023-04-01T00:32:41;11.10;99.90
4050;DHT22;2039;50.894;6.888;2023-04-01T00:35:07;11.10;99.90
4050;DHT22;2039;50.894;6.888;2023-04-01T00:37:35;11.10;99.90
4050;DHT22;2039;50.894;6.888;2023-04-01T00:40:06;11.10;99.90
4050;DHT22;2039;50.894;6.888;2023-04-01T00:42:33;11.10;99.90
4050;DHT22;2039;50.894;6.888;2023-04-01T00:44:58;11.10;99.90
4050;DHT22;2039;50.894;6.888;2023-04-01T00:47:44;11.00;99.90
4050;DHT22;2039;50.894;6.888;2023-04-01T00:50:10;11.10;99.90
4050;DHT22;2039;50.894;6.888;2023-04-01T00:52:36;11.10;99.90
4050;DHT22;2039;50.894;6.888;2023-04-01T00:55:07;11.10;99.90
4050;DHT22;2039;50.894;6.888;2023-04-01T00:57:36;11.10;99.90
4050;DHT22;2039;50.894;6.888;2023-04-01T01:00:05;11.00;99.90
4050;DHT22;2039;50.894;6.888;2023-04-01T01:02:33;11.00;99.90
4050;DHT22;2039;50.894;6.888;2023-04-01T01:05:00;10.90;99.90
4050;DHT22;2039;50.894;6.888;2023-04-01T01:10:17;11.00;99.90
4050;DHT22;2039;50.894;6.888;2023-04-01T01:15:41;11.00;99.90
4050;DHT22;2039;50.894;6.888;2023-04-01T01:18:35;11.00;99.90
4050;DHT22;2039;50.894;6.888;2023-04-01T01:26:45;11.10;99.90
4050;DHT22;2039;50.894;6.888;2023-04-01T01:30:14;11.20;99.90
4050;DHT22;2039;50.894;6.888;2023-04-01T01:37:31;11.10;99.90
4050;DHT22;2039;50.894;6.888;2023-04-01T01:40:05;11.10;99.90
4050;DHT22;2039;50.894;6.888;2023-04-01T01:42:35;11.10;99.90
4050;DHT22;2039;50.894;6.888;2023-04-01T01:45:04;11.10;99.90
4050;DHT22;2039;50.894;6.888;2023-04-01T01:47:31;11.10;99.90
4050;DHT22;2039;50.894;6.888;2023-04-01T01:49:58;11.00;99.90
4050;DHT22;2039;50.894;6.888;2023-04-01T01:52:27;11.00;99.90
4050;DHT22;2039;50.894;6.888;2023-04-01T01:54:58;11.00;99.90
4050;DHT22;2039;50.894;6.888;2023-04-01T01:57:29;11.00;99.90
4050;DHT22;2039;50.894;6.888;2023-04-01T02:00:08;10.90;99.90
4050;DHT22;2039;50.894;6.888;2023-04-01T02:02:47;10.90;99.90
4050;DHT22;2039;50.894;6.888;2023-04-01T02:05:25;10.80;99.90
4050;DHT22;2039;50.894;6.888;2023-04-01T02:08:00;10.80;99.90
4050;DHT22;2039;50.894;6.888;2023-04-01T02:10:27;10.80;99.90
4050;DHT22;2039;50.894;6.888;2023-04-01T02:12:57;10.80;99.90
4050;DHT22;2039;50.894;6.888;2023-04-01T02:15:25;10.70;99.90
4050;DHT22;2039;50.894;6.888;2023-04-01T02:17:55;10.70;99.90
4050;DHT22;2039;50.894;6.888;2023-04-01T02:20:23;10.70;99.90
4050;DHT22;2039;50.894;6.888;2023-04-01T02:22:52;10.70;99.90
4050;DHT22;2039;50.894;6.888;2023-04-01T02:25:27;10.70;99.90
4050;DHT22;2039;50.894;6.888;2023-04-01T02:27:55;10.70;99.90
4050;DHT22;2039;50.894;6.888;2023-04-01T02:30:23;10.70;99.90
4050;DHT22;2039;50.894;6.888;2023-04-01T02:32:49;10.70;99.90
4050;DHT22;2039;50.894;6.888;2023-04-01T02:35:16;10.60;99.90
4050;DHT22;2039;50.894;6.888;2023-04-01T02:37:44;10.60;99.90
4050;DHT22;2039;50.894;6.888;2023-04-01T02:40:13;10.50;99.90
4050;DHT22;2039;50.894;6.888;2023-04-01T02:42:39;10.50;99.90
4050;DHT22;2039;50.894;6.888;2023-04-01T02:45:09;10.40;99.90
4050;DHT22;2039;50.894;6.888;2023-04-01T02:47:35;10.40;99.90
4050;DHT22;2039;50.894;6.888;2023-04-01T02:50:04;10.40;99.90
4050;DHT22;2039;50.894;6.888;2023-04-01T02:52:30;10.40;99.90
4050;DHT22;2039;50.894;6.888;2023-04-01T02:54:57;10.30;99.90
4050;DHT22;2039;50.894;6.888;2023-04-01T02:57:23;10.40;99.90
4050;DHT22;2039;50.894;6.888;2023-04-01T02:59:49;10.30;99.90
4050;DHT22;2039;50.894;6.888;2023-04-01T03:02:15;10.30;99.90
4050;DHT22;2039;50.894;6.888;2023-04-01T03:04:41;10.40;99.90
4050;DHT22;2039;50.894;6.888;2023-04-01T03:07:07;10.40;99.90
4050;DHT22;2039;50.894;6.888;2023-04-01T03:09:33;10.50;99.90
4050;DHT22;2039;50.894;6.888;2023-04-01T03:11:59;10.50;99.90
4050;DHT22;2039;50.894;6.888;2023-04-01T03:14:25;10.40;99.90
4050;DHT22;2039;50.894;6.888;2023-04-01T03:16:51;10.30;99.90
4050;DHT22;2039;50.894;6.888;2023-04-01T03:19:16;10.30;99.90
4050;DHT22;2039;50.894;6.888;2023-04-01T03:21:42;10.40;99.90
4050;DHT22;2039;50.894;6.888;2023-04-01T03:24:08;10.40;99.90
4050;DHT22;2039;50.894;6.888;2023-04-01T03:26:33;10.40;99.90
4050;DHT22;2039;50.894;6.888;2023-04-01T03:28:59;10.40;99.90
4050;DHT22;2039;50.894;6.888;2023-04-01T03:31:25;10.50;99.90
4050;DHT22;2039;50.894;6.888;2023-04-01T03:33:50;10.50;99.90
4050;DHT22;2039;50.894;6.888;2023-04-01T03:36:16;10.50;99.90
4050;DHT22;2039;50.894;6.888;2023-04-01T03:38:44;10.50;99.90
4050;DHT22;2039;50.894;6.888;2023-04-01T03:41:15;10.50;99.90
4050;DHT22;2039;50.894;6.888;2023-04-01T03:43:41;10.50;99.90
4050;DHT22;2039;50.894;6.888;2023-04-01T03:46:07;10.50;99.90
4050;DHT22;2039;50.894;6.888;2023-04-01T03:48:33;10.50;99.90
4050;DHT22;2039;50.894;6.888;2023-04-01T03:50:59;10.50;99.90
4050;DHT22;2039;50.894;6.888;2023-04-01T03:53:24;10.50;99.90
4050;DHT22;2039;50.894;6.888;2023-04-01T03:55:50;10.40;99.90
4050;DHT22;2039;50.894;6.888;2023-04-01T03:58:16;10.50;99.90
4050;DHT22;2039;50.894;6.888;2023-04-01T04:00:42;10.60;99.90
4050;DHT22;2039;50.894;6.888;2023-04-01T04:03:08;10.60;99.90
4050;DHT22;2039;50.894;6.888;2023-04-01T04:05:33;10.50;99.90
4050;DHT22;2039;50.894;6.888;2023-04-01T04:07:59;10.50;99.90
4050;DHT22;2039;50.894;6.888;2023-04-01T04:10:25;10.60;99.90
4050;DHT22;2039;50.894;6.888;2023-04-01T04:12:52;10.60;99.90
4050;DHT22;2039;50.894;6.888;2023-04-01T04:15:17;10.70;99.90
4050;DHT22;2039;50.894;6.888;2023-04-01T04:17:46;10.70;99.90
4050;DHT22;2039;50.894;6.888;2023-04-01T04:20:12;10.70;99.90
4050;DHT22;2039;50.894;6.888;2023-04-01T04:22:38;10.60;99.90
4050;DHT22;2039;50.894;6.888;2023-04-01T04:25:04;10.60;99.90
4050;DHT22;2039;50.894;6.888;2023-04-01T04:27:30;10.50;99.90
4050;DHT22;2039;50.894;6.888;2023-04-01T04:29:56;10.50;99.90
4050;DHT22;2039;50.894;6.888;2023-04-01T04:32:22;10.50;99.90
4050;DHT22;2039;50.894;6.888;2023-04-01T04:34:47;10.60;99.90
4050;DHT22;2039;50.894;6.888;2023-04-01T04:37:13;10.60;99.90
4050;DHT22;2039;50.894;6.888;2023-04-01T04:39:39;10.60;99.90
4050;DHT22;2039;50.894;6.888;2023-04-01T04:42:05;10.60;99.90
4050;DHT22;2039;50.894;6.888;2023-04-01T04:44:31;10.50;99.90
4050;DHT22;2039;50.894;6.888;2023-04-01T04:46:56;10.50;99.90
4050;DHT22;2039;50.894;6.888;2023-04-01T04:49:22;10.50;99.90
4050;DHT22;2039;50.894;6.888;2023-04-01T04:51:48;10.50;99.90
4050;DHT22;2039;50.894;6.888;2023-04-01T04:54:13;10.40;99.90
4050;DHT22;2039;50.894;6.888;2023-04-01T04:56:39;10.50;99.90
4050;DHT22;2039;50.894;6.888;2023-04-01T04:59:05;10.50;99.90
4050;DHT22;2039;50.894;6.888;2023-04-01T05:01:32;10.50;99.90
4050;DHT22;2039;50.894;6.888;2023-04-01T05:03:59;10.50;99.90
4050;DHT22;2039;50.894;6.888;2023-04-01T05:06:25;10.50;99.90
4050;DHT22;2039;50.894;6.888;2023-04-01T05:08:55;10.50;99.90
4050;DHT22;2039;50.894;6.888;2023-04-01T05:11:21;10.50;99.90
4050;DHT22;2039;50.894;6.888;2023-04-01T05:13:46;10.50;99.90
4050;DHT22;2039;50.894;6.888;2023-04-01T05:16:15;10.50;99.90
4050;DHT22;2039;50.894;6.888;2023-04-01T05:18:41;10.50;99.90
4050;DHT22;2039;50.894;6.888;2023-04-01T05:21:08;10.50;99.90
4050;DHT22;2039;50.894;6.888;2023-04-01T05:23:34;10.50;99.90
4050;DHT22;2039;50.894;6.888;2023-04-01T05:26:08;10.50;99.90
4050;DHT22;2039;50.894;6.888;2023-04-01T05:28:34;10.60;99.90
4050;DHT22;2039;50.894;6.888;2023-04-01T05:31:00;10.60;99.90
4050;DHT22;2039;50.894;6.888;2023-04-01T05:33:27;10.50;99.90
4050;DHT22;2039;50.894;6.888;2023-04-01T05:35:56;10.50;99.90
4050;DHT22;2039;50.894;6.888;2023-04-01T05:38:22;10.50;99.90
4050;DHT22;2039;50.894;6.888;2023-04-01T05:40:48;10.50;99.90
4050;DHT22;2039;50.894;6.888;2023-04-01T05:43:13;10.50;99.90
4050;DHT22;2039;50.894;6.888;2023-04-01T05:45:39;10.50;99.90
4050;DHT22;2039;50.894;6.888;2023-04-01T05:48:05;10.40;99.90
4050;DHT22;2039;50.894;6.888;2023-04-01T05:50:31;10.40;99.90
4050;DHT22;2039;50.894;6.888;2023-04-01T05:52:57;10.50;99.90
4050;DHT22;2039;50.894;6.888;2023-04-01T05:55:25;10.50;99.90
4050;DHT22;2039;50.894;6.888;2023-04-01T05:57:54;10.50;99.90
4050;DHT22;2039;50.894;6.888;2023-04-01T06:00:20;10.50;99.90
4050;DHT22;2039;50.894;6.888;2023-04-01T06:02:46;10.40;99.90
4050;DHT22;2039;50.894;6.888;2023-04-01T06:05:22;10.40;99.90
4050;DHT22;2039;50.894;6.888;2023-04-01T06:07:51;10.40;99.90
4050;DHT22;2039;50.894;6.888;2023-04-01T06:10:21;10.40;99.90
4050;DHT22;2039;50.894;6.888;2023-04-01T06:18:13;10.50;99.90
4050;DHT22;2039;50.894;6.888;2023-04-01T06:23:22;10.50;99.90
4050;DHT22;2039;50.894;6.888;2023-04-01T06:28:46;10.60;99.90
4050;DHT22;2039;50.894;6.888;2023-04-01T06:31:42;10.60;99.90
4050;DHT22;2039;50.894;6.888;2023-04-01T06:43:34;10.70;99.90
4050;DHT22;2039;50.894;6.888;2023-04-01T06:51:53;10.70;99.90
4050;DHT22;2039;50.894;6.888;2023-04-01T06:54:33;10.80;99.90
4050;DHT22;2039;50.894;6.888;2023-04-01T06:57:09;10.80;99.90
4050;DHT22;2039;50.894;6.888;2023-04-01T06:59:40;10.90;99.90
4050;DHT22;2039;50.894;6.888;2023-04-01T07:04:53;10.90;99.90
4050;DHT22;2039;50.894;6.888;2023-04-01T07:10:35;10.90;99.90
4050;DHT22;2039;50.894;6.888;2023-04-01T07:13:14;10.90;99.90
4050;DHT22;2039;50.894;6.888;2023-04-01T07:15:54;10.90;99.90
4050;DHT22;2039;50.894;6.888;2023-04-01T07:18:32;11.00;99.90
4050;DHT22;2039;50.894;6.888;2023-04-01T07:21:01;11.00;99.90
4050;DHT22;2039;50.894;6.888;2023-04-01T07:23:40;10.90;99.90
4050;DHT22;2039;50.894;6.888;2023-04-01T07:26:24;10.80;99.90
4050;DHT22;2039;50.894;6.888;2023-04-01T07:28:52;10.90;99.90
4050;DHT22;2039;50.894;6.888;2023-04-01T07:34:18;10.80;99.90
4050;DHT22;2039;50.894;6.888;2023-04-01T07:36:48;10.80;99.90
4050;DHT22;2039;50.894;6.888;2023-04-01T07:50:02;10.80;99.90
4050;DHT22;2039;50.894;6.888;2023-04-01T07:58:01;10.80;99.90
4050;DHT22;2039;50.894;6.888;2023-04-01T08:00:42;10.90;99.90
4050;DHT22;2039;50.894;6.888;2023-04-01T08:22:36;10.90;99.90
4050;DHT22;2039;50.894;6.888;2023-04-01T08:25:05;10.90;99.90
4050;DHT22;2039;50.894;6.888;2023-04-01T08:27:46;11.00;99.90
4050;DHT22;2039;50.894;6.888;2023-04-01T08:30:24;11.10;99.90
4050;DHT22;2039;50.894;6.888;2023-04-01T08:33:12;11.10;99.90
4050;DHT22;2039;50.894;6.888;2023-04-01T08:41:26;11.00;99.90
4050;DHT22;2039;50.894;6.888;2023-04-01T08:46:56;11.10;99.90
4050;DHT22;2039;50.894;6.888;2023-04-01T08:49:53;11.10;99.90
4050;DHT22;2039;50.894;6.888;2023-04-01T08:55:25;11.20;99.90
4050;DHT22;2039;50.894;6.888;2023-04-01T09:03:23;11.20;99.90
4050;DHT22;2039;50.894;6.888;2023-04-01T09:14:21;11.20;99.90
4050;DHT22;2039;50.894;6.888;2023-04-01T09:17:00;11.30;99.90
4050;DHT22;2039;50.894;6.888;2023-04-01T09:20:16;11.20;99.90
4050;DHT22;2039;50.894;6.888;2023-04-01T09:28:53;11.50;99.90
4050;DHT22;2039;50.894;6.888;2023-04-01T09:36:47;11.70;99.90
4050;DHT22;2039;50.894;6.888;2023-04-01T09:39:34;11.70;99.90
4050;DHT22;2039;50.894;6.888;2023-04-01T09:44:37;11.60;99.90
4050;DHT22;2039;50.894;6.888;2023-04-01T09:50:35;11.80;99.90
4050;DHT22;2039;50.894;6.888;2023-04-01T10:07:51;11.80;99.90
4050;DHT22;2039;50.894;6.888;2023-04-01T10:23:13;11.60;99.90
4050;DHT22;2039;50.894;6.888;2023-04-01T10:31:45;11.40;99.90
4050;DHT22;2039;50.894;6.888;2023-04-01T10:51:31;11.80;99.90
4050;DHT22;2039;50.894;6.888;2023-04-01T11:02:47;11.80;99.90
4050;DHT22;2039;50.894;6.888;2023-04-01T11:22:09;11.70;99.90
4050;DHT22;2039;50.894;6.888;2023-04-01T11:33:16;11.70;99.90
4050;DHT22;2039;50.894;6.888;2023-04-01T11:38:46;12.00;99.90
4050;DHT22;2039;50.894;6.888;2023-04-01T11:44:23;12.20;99.90
4050;DHT22;2039;50.894;6.888;2023-04-01T11:52:47;12.30;99.90
4050;DHT22;2039;50.894;6.888;2023-04-01T11:58:29;12.40;99.90
4050;DHT22;2039;50.894;6.888;2023-04-01T12:04:17;12.60;99.90
4050;DHT22;2039;50.894;6.888;2023-04-01T12:09:51;12.90;99.90
4050;DHT22;2039;50.894;6.888;2023-04-01T12:12:36;13.00;99.90
4050;DHT22;2039;50.894;6.888;2023-04-01T12:15:16;13.00;99.90
4050;DHT22;2039;50.894;6.888;2023-04-01T12:17:51;12.90;99.90
4050;DHT22;2039;50.894;6.888;2023-04-01T12:20:30;12.80;99.90
4050;DHT22;2039;50.894;6.888;2023-04-01T12:23:06;12.70;99.90
4050;DHT22;2039;50.894;6.888;2023-04-01T12:31:29;12.90;99.90
4050;DHT22;2039;50.894;6.888;2023-04-01T12:34:24;12.90;99.90
4050;DHT22;2039;50.894;6.888;2023-04-01T12:40:46;12.80;99.90
4050;DHT22;2039;50.894;6.888;2023-04-01T13:00:18;13.40;99.90
4050;DHT22;2039;50.894;6.888;2023-04-01T13:03:27;13.40;99.90
4050;DHT22;2039;50.894;6.888;2023-04-01T13:06:20;13.40;99.90
4050;DHT22;2039;50.894;6.888;2023-04-01T13:08:58;13.40;99.90
4050;DHT22;2039;50.894;6.888;2023-04-01T13:16:56;13.40;99.90
4050;DHT22;2039;50.894;6.888;2023-04-01T13:19:30;13.30;99.90
4050;DHT22;2039;50.894;6.888;2023-04-01T13:22:29;13.30;99.90
4050;DHT22;2039;50.894;6.888;2023-04-01T13:25:13;13.30;99.90
4050;DHT22;2039;50.894;6.888;2023-04-01T13:27:47;13.10;99.90
4050;DHT22;2039;50.894;6.888;2023-04-01T13:30:35;12.80;99.90
4050;DHT22;2039;50.894;6.888;2023-04-01T13:41:48;12.90;99.90
4050;DHT22;2039;50.894;6.888;2023-04-01T14:04:34;12.50;99.90
4050;DHT22;2039;50.894;6.888;2023-04-01T14:07:17;12.40;99.90
4050;DHT22;2039;50.894;6.888;2023-04-01T14:16:00;12.50;99.90
4050;DHT22;2039;50.894;6.888;2023-04-01T14:23:57;12.50;99.90
4050;DHT22;2039;50.894;6.888;2023-04-01T14:29:36;12.50;99.90
4050;DHT22;2039;50.894;6.888;2023-04-01T14:32:16;12.50;99.90
4050;DHT22;2039;50.894;6.888;2023-04-01T14:37:55;12.50;99.90
4050;DHT22;2039;50.894;6.888;2023-04-01T14:40:53;12.50;99.90
4050;DHT22;2039;50.894;6.888;2023-04-01T14:49:35;12.30;99.90
4050;DHT22;2039;50.894;6.888;2023-04-01T14:52:17;12.20;99.90
4050;DHT22;2039;50.894;6.888;2023-04-01T14:54:48;12.10;99.90
4050;DHT22;2039;50.894;6.888;2023-04-01T14:57:16;12.20;99.90
4050;DHT22;2039;50.894;6.888;2023-04-01T14:59:53;12.30;99.90
4050;DHT22;2039;50.894;6.888;2023-04-01T15:05:26;12.30;99.90
4050;DHT22;2039;50.894;6.888;2023-04-01T15:08:05;12.40;99.90
4050;DHT22;2039;50.894;6.888;2023-04-01T15:16:27;12.50;99.90
4050;DHT22;2039;50.894;6.888;2023-04-01T15:25:06;12.50;99.90
4050;DHT22;2039;50.894;6.888;2023-04-01T15:28:03;12.50;99.90
4050;DHT22;2039;50.894;6.888;2023-04-01T15:30:56;12.50;99.90
4050;DHT22;2039;50.894;6.888;2023-04-01T15:36:44;12.40;99.90
4050;DHT22;2039;50.894;6.888;2023-04-01T15:42:16;12.30;99.90
4050;DHT22;2039;50.894;6.888;2023-04-01T15:48:01;12.30;99.90
4050;DHT22;2039;50.894;6.888;2023-04-01T15:50:54;12.20;99.90
4050;DHT22;2039;50.894;6.888;2023-04-01T15:56:16;12.20;99.90
4050;DHT22;2039;50.894;6.888;2023-04-01T15:59:14;12.20;99.90
4050;DHT22;2039;50.894;6.888;2023-04-01T16:02:08;12.10;99.90
4050;DHT22;2039;50.894;6.888;2023-04-01T16:10:34;12.00;99.90
4050;DHT22;2039;50.894;6.888;2023-04-01T16:24:22;11.80;99.90
4050;DHT22;2039;50.894;6.888;2023-04-01T16:27:06;11.90;99.90
4050;DHT22;2039;50.894;6.888;2023-04-01T16:33:01;11.90;99.90
4050;DHT22;2039;50.894;6.888;2023-04-01T16:43:46;11.90;99.90
4050;DHT22;2039;50.894;6.888;2023-04-01T16:46:20;11.90;99.90
4050;DHT22;2039;50.894;6.888;2023-04-01T16:51:25;11.80;99.90
4050;DHT22;2039;50.894;6.888;2023-04-01T16:54:13;11.80;99.90
4050;DHT22;2039;50.894;6.888;2023-04-01T16:59:36;11.70;99.90
4050;DHT22;2039;50.894;6.888;2023-04-01T17:02:10;11.70;99.90
4050;DHT22;2039;50.894;6.888;2023-04-01T17:04:47;11.80;99.90
4050;DHT22;2039;50.894;6.888;2023-04-01T17:13:21;11.70;99.90
4050;DHT22;2039;50.894;6.888;2023-04-01T17:16:28;11.60;99.90
4050;DHT22;2039;50.894;6.888;2023-04-01T17:22:13;11.40;99.90
4050;DHT22;2039;50.894;6.888;2023-04-01T17:36:14;11.40;99.90
4050;DHT22;2039;50.894;6.888;2023-04-01T17:39:29;11.30;99.90
4050;DHT22;2039;50.894;6.888;2023-04-01T17:42:35;11.20;99.90
4050;DHT22;2039;50.894;6.888;2023-04-01T17:50:57;11.20;99.90
4050;DHT22;2039;50.894;6.888;2023-04-01T17:53:47;11.10;99.90
4050;DHT22;2039;50.894;6.888;2023-04-01T17:59:27;11.00;99.90
4050;DHT22;2039;50.894;6.888;2023-04-01T18:02:16;11.00;99.90
4050;DHT22;2039;50.894;6.888;2023-04-01T18:21:46;10.80;99.90
4050;DHT22;2039;50.894;6.888;2023-04-01T18:27:16;10.70;99.90
4050;DHT22;2039;50.894;6.888;2023-04-01T18:29:58;10.70;99.90
4050;DHT22;2039;50.894;6.888;2023-04-01T18:32:43;10.70;99.90
4050;DHT22;2039;50.894;6.888;2023-04-01T18:38:18;10.70;99.90
4050;DHT22;2039;50.894;6.888;2023-04-01T18:52:39;10.60;99.90
4050;DHT22;2039;50.894;6.888;2023-04-01T19:00:40;10.60;99.90
4050;DHT22;2039;50.894;6.888;2023-04-01T19:03:25;10.50;99.90
4050;DHT22;2039;50.894;6.888;2023-04-01T19:05:59;10.50;99.90
4050;DHT22;2039;50.894;6.888;2023-04-01T19:08:33;10.60;99.90
4050;DHT22;2039;50.894;6.888;2023-04-01T19:11:23;10.60;99.90
4050;DHT22;2039;50.894;6.888;2023-04-01T19:17:00;10.60;99.90
4050;DHT22;2039;50.894;6.888;2023-04-01T19:27:42;10.60;99.90
4050;DHT22;2039;50.894;6.888;2023-04-01T19:30:17;10.60;99.90
4050;DHT22;2039;50.894;6.888;2023-04-01T19:33:15;10.60;99.90
4050;DHT22;2039;50.894;6.888;2023-04-01T19:38:30;10.50;99.90
4050;DHT22;2039;50.894;6.888;2023-04-01T19:41:28;10.50;99.90
4050;DHT22;2039;50.894;6.888;2023-04-01T19:46:58;10.40;99.90
4050;DHT22;2039;50.894;6.888;2023-04-01T19:49:54;10.40;99.90
4050;DHT22;2039;50.894;6.888;2023-04-01T19:58:26;10.40;99.90
4050;DHT22;2039;50.894;6.888;2023-04-01T20:00:58;10.40;99.90
4050;DHT22;2039;50.894;6.888;2023-04-01T20:03:41;10.30;99.90
4050;DHT22;2039;50.894;6.888;2023-04-01T20:14:46;10.40;99.90
4050;DHT22;2039;50.894;6.888;2023-04-01T20:25:43;10.40;99.90
4050;DHT22;2039;50.894;6.888;2023-04-01T20:28:13;10.40;99.90
4050;DHT22;2039;50.894;6.888;2023-04-01T20:42:24;10.40;99.90
4050;DHT22;2039;50.894;6.888;2023-04-01T20:51:19;10.40;99.90
4050;DHT22;2039;50.894;6.888;2023-04-01T20:54:35;10.40;99.90
4050;DHT22;2039;50.894;6.888;2023-04-01T21:00:02;10.40;99.90
4050;DHT22;2039;50.894;6.888;2023-04-01T21:02:56;10.30;99.90
4050;DHT22;2039;50.894;6.888;2023-04-01T21:05:45;10.40;99.90
4050;DHT22;2039;50.894;6.888;2023-04-01T21:14:28;10.30;99.90
4050;DHT22;2039;50.894;6.888;2023-04-01T21:17:06;10.40;99.90
4050;DHT22;2039;50.894;6.888;2023-04-01T21:22:50;10.30;99.90
4050;DHT22;2039;50.894;6.888;2023-04-01T21:25:29;10.20;99.90
4050;DHT22;2039;50.894;6.888;2023-04-01T21:30:54;10.30;99.90
4050;DHT22;2039;50.894;6.888;2023-04-01T21:33:50;10.20;99.90
4050;DHT22;2039;50.894;6.888;2023-04-01T21:53:34;10.20;99.90
4050;DHT22;2039;50.894;6.888;2023-04-01T22:07:29;10.20;99.90
4050;DHT22;2039;50.894;6.888;2023-04-01T22:13:18;10.10;99.90
4050;DHT22;2039;50.894;6.888;2023-04-01T22:19:00;10.10;99.90
4050;DHT22;2039;50.894;6.888;2023-04-01T22:27:10;10.20;99.90
4050;DHT22;2039;50.894;6.888;2023-04-01T22:30:31;10.20;99.90
4050;DHT22;2039;50.894;6.888;2023-04-01T22:32:44;10.20;99.90
4050;DHT22;2039;50.894;6.888;2023-04-01T22:42:59;10.20;99.90
4050;DHT22;2039;50.894;6.888;2023-04-01T22:45:56;10.00;99.90
4050;DHT22;2039;50.894;6.888;2023-04-01T22:51:18;9.90;99.90
4050;DHT22;2039;50.894;6.888;2023-04-01T22:54:18;10.00;99.90
4050;DHT22;2039;50.894;6.888;2023-04-01T22:56:52;10.10;99.90
4050;DHT22;2039;50.894;6.888;2023-04-01T23:04:43;10.20;99.90
4050;DHT22;2039;50.894;6.888;2023-04-01T23:09:56;10.20;99.90
4050;DHT22;2039;50.894;6.888;2023-04-01T23:12:24;10.20;99.90
4050;DHT22;2039;50.894;6.888;2023-04-01T23:14:58;10.20;99.90
4050;DHT22;2039;50.894;6.888;2023-04-01T23:17:38;10.20;99.90
4050;DHT22;2039;50.894;6.888;2023-04-01T23:26:32;10.20;99.90
4050;DHT22;2039;50.894;6.888;2023-04-01T23:29:01;10.10;99.90
4050;DHT22;2039;50.894;6.888;2023-04-01T23:31:36;10.10;99.90
4050;DHT22;2039;50.894;6.888;2023-04-01T23:36:30;10.10;99.90
4050;DHT22;2039;50.894;6.888;2023-04-01T23:39:06;10.10;99.90
4050;DHT22;2039;50.894;6.888;2023-04-01T23:41:37;10.00;99.90
4050;DHT22;2039;50.894;6.888;2023-04-01T23:44:09;10.00;99.90
4050;DHT22;2039;50.894;6.888;2023-04-01T23:46:39;9.90;99.90
4050;DHT22;2039;50.894;6.888;2023-04-01T23:49:13;9.90;99.90
4050;DHT22;2039;50.894;6.888;2023-04-01T23:51:49;9.80;99.90
4050;DHT22;2039;50.894;6.888;2023-04-01T23:57:16;9.80;99.90
